Crawford, NE (69339)

1:29 AM MDT on March 27, 2015 (GMT -0600)
Deadman | | Change Station
CLOSE
Current Station
Personal Weather Station
Location: Crawford, NE
Elevation: 4180 ft
Nearby Weather Stations

Elev 4180 ft 42.58 °N, 103.47 °W | Updated 14 seconds ago

Overcast
Overcast
36.3 °F
Feels Like 32 °F
N
5.3
Wind Variable Wind from ESE
Gusts 8.3 mph

Today
High -- | Low -- °F
--% Chance of Precip.
Yesterday
High -- | Low -- °F
Precip. -- in
6:44 AM 7:13 PM
Waxing Crescent, 50% visible
Pressure 30.21 in
Visibility 10.0 miles
Clouds Mostly Cloudy 5000 ft
Overcast 6000 ft
Windchill 32 °F
Dew Point 32 °F
Humidity 83%
Rainfall 0.00 in
Snow Depth Not available.
UV 0 out of 12
Pollen 7.70 out of 12
Air Quality Not available.
Flu Activity Not available.
METAR KCDR 270653Z AUTO 16005KT 10SM BKN050 OVC060 03/01 A3017 RMK AO2 RAE50 SLP230 P0000 T00330006 401281067

More Conditions Fewer Conditions

Pressure 30.21 in
Visibility 10.0 miles
Clouds Mostly Cloudy 5000 ft
Overcast 6000 ft
Windchill 32 °F
Dew Point 32 °F
Humidity 83%
Rainfall 0.00 in
Snow Depth Not available.
UV 0 out of 12
Pollen 7.70 out of 12
Air Quality Not available.
Flu Activity Not available.
METAR KCDR 270653Z AUTO 16005KT 10SM BKN050 OVC060 03/01 A3017 RMK AO2 RAE50 SLP230 P0000 T00330006 401281067

More Conditions Fewer Conditions

10-Day Weather Forecast

Almanac

Astronomy

Mar. 27, 2015 Rise Set
Actual Time
Civil Twilight
Nautical Twilight
Astronomical Twilight
Moon
Length of Visible Light
Length of Day
Tomorrow will be .
, % of the Moon is Illuminated

Today's Extremes

State Highs State Lows

Community

WunderPhotos

Upload Photos

1,808,701 photos uploaded!

WunderBlogs® & News

Nearby

Air Quality

  Air Quality AQ Index Pollutant
Not available.

Snow Depth

Station Depth Elevation

Earthquake Activity

City Distance Mag. Time & Date
Minimum magnitude displayed is 2.5.

Coastal Water Temperatures

Place Temperature

Stations

Nearby Weather Stations

Station Location Temp. Windchill Dew Point Humidity Wind Precip. Elev Updated Type